Time;durP1;ratioP1;P1;durP2;ratioP2;P2;SDS_P1;SDS_P2;PMS_P1;PMS_P2;Temp;Humidity;BMP_temperature;BMP_pressure;BME280_temperature;BME280_humidity;BME280_pressure;Samples;Min_cycle;Max_cycle;Signal;HPM_P1;HPM_P2
2023/10/17 00:01:19;;;;;;;1.77;1.20;;;16.30;43.70;;;;;;5109396;27;46379;-76
2023/10/17 00:03:46;;;;;;;0.80;0.80;;;16.30;43.80;;;;;;5110887;27;45256;-75
2023/10/17 00:06:16;;;;;;;1.50;1.17;;;16.20;43.70;;;;;;5111067;27;45247;-76
2023/10/17 00:08:44;;;;;;;2.28;1.40;;;16.20;43.70;;;;;;5111215;27;45308;-76
2023/10/17 00:11:21;;;;;;;2.85;1.25;;;16.20;43.70;;;;;;5111150;27;45295;-75
2023/10/17 00:13:59;;;;;;;1.27;1.00;;;16.20;43.70;;;;;;5111360;27;45358;-76
2023/10/17 00:16:29;;;;;;;1.33;1.10;;;16.20;43.70;;;;;;5111428;27;45329;-76
2023/10/17 00:18:57;;;;;;;1.40;1.30;;;16.20;43.80;;;;;;5111651;27;45316;-76
2023/10/17 00:21:25;;;;;;;2.67;1.63;;;16.20;43.80;;;;;;5110790;27;45721;-76
2023/10/17 00:23:52;;;;;;;1.88;1.38;;;16.10;43.70;;;;;;5110255;27;45338;-76
2023/10/17 00:26:20;;;;;;;1.52;1.15;;;16.10;43.80;;;;;;5110998;27;45410;-76
2023/10/17 00:28:51;;;;;;;1.92;1.33;;;16.10;43.80;;;;;;5111633;27;45264;-76
2023/10/17 00:31:21;;;;;;;1.25;1.15;;;16.10;43.90;;;;;;5110717;27;46261;-76
2023/10/17 00:33:57;;;;;;;2.15;1.50;;;16.00;43.90;;;;;;5111134;27;45406;-75
2023/10/17 00:36:26;;;;;;;2.05;1.33;;;16.00;43.80;;;;;;5111317;27;45187;-75
2023/10/17 00:38:54;;;;;;;1.10;1.00;;;16.00;43.90;;;;;;5111579;27;45438;-76
2023/10/17 00:41:29;;;;;;;1.83;0.93;;;16.00;43.80;;;;;;5110851;27;45559;-75
2023/10/17 00:43:57;;;;;;;1.85;1.10;;;16.00;43.90;;;;;;5111082;27;45515;-76
2023/10/17 00:46:24;;;;;;;0.93;0.90;;;16.00;43.80;;;;;;5110673;27;45327;-76
2023/10/17 00:48:53;;;;;;;1.27;1.17;;;16.00;43.90;;;;;;5111064;27;45307;-76
2023/10/17 00:51:21;;;;;;;1.00;1.00;;;16.00;43.80;;;;;;5110933;27;46385;-76
2023/10/17 00:53:48;;;;;;;1.05;0.95;;;16.00;43.90;;;;;;5110889;27;45236;-76
2023/10/17 00:56:15;;;;;;;1.63;1.13;;;16.00;43.80;;;;;;5110993;27;45346;-75
2023/10/17 00:58:57;;;;;;;1.83;1.30;;;15.90;44.40;;;;;;5110976;27;45474;-76
2023/10/17 01:01:27;;;;;;;1.30;1.20;;;15.90;43.80;;;;;;5110777;27;45457;-74
2023/10/17 01:03:58;;;;;;;1.75;0.93;;;15.90;43.80;;;;;;5110283;27;45380;-76
2023/10/17 01:06:35;;;;;;;1.23;1.10;;;15.90;43.80;;;;;;5110118;27;45381;-76
2023/10/17 01:09:08;;;;;;;4.22;1.15;;;15.90;43.90;;;;;;5110546;27;45427;-75
2023/10/17 01:11:38;;;;;;;1.98;1.30;;;15.90;43.80;;;;;;5110255;27;46506;-76
2023/10/17 01:14:05;;;;;;;1.65;1.25;;;15.90;43.90;;;;;;5110237;27;45383;-76
2023/10/17 01:16:34;;;;;;;1.33;1.00;;;15.80;43.90;;;;;;5110365;27;45326;-75
2023/10/17 01:19:04;;;;;;;1.10;1.10;;;15.80;43.90;;;;;;5110501;27;45415;-76
2023/10/17 01:21:31;;;;;;;1.70;1.25;;;15.80;43.90;;;;;;5109773;27;45286;-74
2023/10/17 01:23:58;;;;;;;1.20;1.10;;;15.80;43.90;;;;;;5110139;27;45204;-74
2023/10/17 01:26:28;;;;;;;1.20;1.10;;;15.80;43.90;;;;;;5109983;27;45315;-74
2023/10/17 01:28:55;;;;;;;2.72;1.42;;;15.80;44.50;;;;;;5109819;27;45422;-74
2023/10/17 01:31:23;;;;;;;1.67;1.40;;;15.80;43.90;;;;;;5108754;27;45421;-74
2023/10/17 01:33:51;;;;;;;1.52;1.10;;;15.70;43.80;;;;;;5109395;27;45509;-74
2023/10/17 01:36:19;;;;;;;1.65;1.38;;;15.70;43.80;;;;;;5109968;27;45370;-74
2023/10/17 01:38:49;;;;;;;1.40;1.30;;;15.70;43.90;;;;;;5109650;27;45390;-76
2023/10/17 01:41:16;;;;;;;1.70;1.20;;;15.70;43.90;;;;;;5109885;27;48020;-76
2023/10/17 01:43:45;;;;;;;1.27;1.17;;;15.70;43.90;;;;;;5109620;27;45268;-76
2023/10/17 01:46:15;;;;;;;1.75;1.25;;;15.70;43.80;;;;;;5109402;27;45333;-76
2023/10/17 01:48:44;;;;;;;1.17;1.15;;;15.70;43.90;;;;;;5110153;27;45118;-76
2023/10/17 01:51:12;;;;;;;0.90;0.90;;;15.70;43.90;;;;;;5109819;27;45492;-74
2023/10/17 01:53:39;;;;;;;1.25;1.15;;;15.70;43.90;;;;;;5110276;27;45296;-74
2023/10/17 01:56:13;;;;;;;2.08;1.35;;;15.60;43.90;;;;;;5109692;27;45376;-75
2023/10/17 01:58:42;;;;;;;3.17;1.20;;;15.60;43.90;;;;;;5110117;27;45235;-76
2023/10/17 02:01:13;;;;;;;1.10;1.00;;;15.60;43.90;;;;;;5109574;27;45448;-76
2023/10/17 02:03:40;;;;;;;1.50;1.40;;;15.60;43.90;;;;;;5109498;27;45290;-76
2023/10/17 02:06:13;;;;;;;1.52;1.30;;;15.60;44.00;;;;;;5108766;27;45358;-76
2023/10/17 02:08:41;;;;;;;1.20;1.10;;;15.60;43.90;;;;;;5108866;27;45393;-76
2023/10/17 02:11:12;;;;;;;2.58;1.20;;;15.60;44.00;;;;;;5108585;27;46379;-76
2023/10/17 02:13:41;;;;;;;2.40;1.00;;;15.60;44.00;;;;;;5108540;27;45327;-76
2023/10/17 02:16:10;;;;;;;1.40;1.30;;;15.50;43.90;;;;;;5108678;27;45303;-76
2023/10/17 02:18:38;;;;;;;2.03;1.00;;;15.50;43.90;;;;;;5108811;27;45309;-76
2023/10/17 02:21:05;;;;;;;1.38;1.27;;;15.50;43.90;;;;;;5108214;27;45464;-76
2023/10/17 02:23:39;;;;;;;1.63;0.90;;;15.50;43.90;;;;;;5107227;27;45324;-73
2023/10/17 02:26:10;;;;;;;0.95;0.93;;;15.50;43.90;;;;;;5107555;27;45414;-72
2023/10/17 02:28:44;;;;;;;2.85;0.90;;;15.50;43.90;;;;;;5107996;27;45339;-74
2023/10/17 02:31:14;;;;;;;1.42;1.02;;;15.50;43.90;;;;;;5107224;27;47562;-75
2023/10/17 02:33:42;;;;;;;1.35;1.10;;;15.50;44.00;;;;;;5108305;27;45288;-74
2023/10/17 02:36:12;;;;;;;1.33;1.10;;;15.50;44.00;;;;;;5108422;27;45272;-74
2023/10/17 02:38:39;;;;;;;1.63;1.38;;;15.50;44.00;;;;;;5108559;27;45407;-74
2023/10/17 02:41:12;;;;;;;1.60;1.20;;;15.40;44.70;;;;;;5108264;27;45245;-75
2023/10/17 02:43:40;;;;;;;1.33;1.10;;;15.40;44.00;;;;;;5108565;27;45330;-75
2023/10/17 02:46:07;;;;;;;1.23;1.13;;;15.40;44.00;;;;;;5108772;27;45341;-74
2023/10/17 02:48:42;;;;;;;6.60;1.30;;;15.40;44.10;;;;;;5109010;27;45544;-74
2023/10/17 02:51:30;;;;;;;2.28;1.50;;;15.40;44.00;;;;;;5108143;27;45257;-74
2023/10/17 02:53:58;;;;;;;2.70;1.20;;;15.40;44.00;;;;;;5108223;27;45394;-74
2023/10/17 02:56:25;;;;;;;1.88;1.52;;;15.40;44.10;;;;;;5108680;27;45264;-74
2023/10/17 02:58:59;;;;;;;1.60;1.27;;;15.40;44.10;;;;;;5108757;27;45290;-75
2023/10/17 03:01:27;;;;;;;2.20;1.20;;;15.30;44.10;;;;;;5108113;27;46776;-75
2023/10/17 03:03:55;;;;;;;2.17;1.27;;;15.30;44.10;;;;;;5108153;27;45356;-74
2023/10/17 03:06:22;;;;;;;1.20;1.10;;;15.30;44.20;;;;;;5108745;27;45299;-74
2023/10/17 03:08:51;;;;;;;1.05;0.90;;;15.30;44.20;;;;;;5108496;27;45395;-74
2023/10/17 03:11:26;;;;;;;1.33;0.88;;;15.30;44.20;;;;;;5107924;27;45252;-74
2023/10/17 03:13:54;;;;;;;1.92;1.30;;;15.30;44.10;;;;;;5107500;27;45661;-74
2023/10/17 03:16:25;;;;;;;1.83;1.20;;;15.30;44.10;;;;;;5108110;27;45425;-73
2023/10/17 03:18:52;;;;;;;2.05;1.27;;;15.30;44.20;;;;;;5108680;27;45130;-74
2023/10/17 03:21:20;;;;;;;2.47;1.20;;;15.20;44.10;;;;;;5107961;27;46303;-74
2023/10/17 03:23:49;;;;;;;2.08;1.40;;;15.30;44.20;;;;;;5107763;27;45483;-75
2023/10/17 03:26:19;;;;;;;1.38;1.23;;;15.20;44.80;;;;;;5107948;27;45322;-75
2023/10/17 03:28:46;;;;;;;1.38;1.20;;;15.20;44.20;;;;;;5107964;27;45307;-76
2023/10/17 03:31:20;;;;;;;1.48;1.10;;;15.20;44.20;;;;;;5107477;27;45730;-76
2023/10/17 03:33:50;;;;;;;1.35;1.25;;;15.20;44.20;;;;;;5107309;27;45256;-75
2023/10/17 03:39:18;;;;;;;1.40;1.30;;;15.20;44.20;;;;;;5107870;27;45500;-75
2023/10/17 03:41:45;;;;;;;1.85;1.25;;;15.20;44.20;;;;;;5107682;27;45397;-75
2023/10/17 03:44:15;;;;;;;1.42;1.27;;;15.20;44.30;;;;;;5107434;27;45275;-76
2023/10/17 03:46:46;;;;;;;0.98;0.90;;;15.10;44.20;;;;;;5106900;27;45407;-76
2023/10/17 03:49:17;;;;;;;1.80;1.10;;;15.10;44.20;;;;;;5106969;27;45430;-76
2023/10/17 03:51:46;;;;;;;1.30;1.20;;;15.10;44.20;;;;;;5106657;27;45735;-76
2023/10/17 03:54:18;;;;;;;1.63;1.30;;;15.10;44.30;;;;;;5108713;27;45295;-75
2023/10/17 03:56:46;;;;;;;2.13;1.30;;;15.10;44.30;;;;;;5108120;27;45425;-75
2023/10/17 03:59:30;;;;;;;1.88;1.05;;;15.10;44.20;;;;;;5108992;27;45235;-75
2023/10/17 04:01:58;;;;;;;2.00;1.10;;;15.10;44.30;;;;;;5110523;27;45337;-75
2023/10/17 04:04:33;;;;;;;2.90;1.60;;;15.10;44.30;;;;;;5107647;27;45348;-75
2023/10/17 04:07:02;;;;;;;3.05;1.23;;;15.00;44.20;;;;;;5108134;27;45292;-75
2023/10/17 04:09:32;;;;;;;2.35;1.25;;;15.10;44.30;;;;;;5107514;27;45565;-75
2023/10/17 04:12:03;;;;;;;1.98;1.15;;;15.00;44.20;;;;;;5107466;27;47380;-75
2023/10/17 04:14:33;;;;;;;3.25;1.23;;;15.00;44.30;;;;;;5107157;27;45393;-75
2023/10/17 04:17:02;;;;;;;3.20;1.17;;;15.00;44.30;;;;;;5107488;27;45346;-76
2023/10/17 04:19:30;;;;;;;1.52;1.30;;;15.00;44.30;;;;;;5107021;27;45228;-75
2023/10/17 04:22:07;;;;;;;1.77;1.10;;;15.00;44.30;;;;;;5106643;27;46638;-76
2023/10/17 04:24:36;;;;;;;1.98;1.15;;;15.00;44.30;;;;;;5106582;27;45352;-75
2023/10/17 04:27:19;;;;;;;2.67;1.23;;;14.90;44.20;;;;;;5106659;27;45316;-75
2023/10/17 04:29:51;;;;;;;1.85;1.45;;;14.90;44.30;;;;;;5106926;27;45652;-75
2023/10/17 04:32:19;;;;;;;2.55;1.30;;;15.00;44.40;;;;;;5106145;27;46249;-75
2023/10/17 04:34:46;;;;;;;1.20;1.10;;;14.90;44.30;;;;;;5106593;27;45405;-76
2023/10/17 04:37:16;;;;;;;2.53;1.30;;;14.90;44.90;;;;;;5106638;27;45307;-75
2023/10/17 04:39:49;;;;;;;1.20;1.00;;;14.90;44.30;;;;;;5107068;27;45493;-75
2023/10/17 04:42:20;;;;;;;4.30;1.15;;;14.90;44.30;;;;;;5106334;27;47544;-76
2023/10/17 04:44:52;;;;;;;1.70;1.30;;;14.90;44.30;;;;;;5106380;27;45409;-75
2023/10/17 04:47:27;;;;;;;2.83;1.17;;;14.90;44.30;;;;;;5107046;27;45257;-76
2023/10/17 04:49:55;;;;;;;1.05;0.95;;;14.90;44.30;;;;;;5120058;27;45558;-76
2023/10/17 04:52:23;;;;;;;2.38;1.25;;;14.90;44.40;;;;;;5109987;27;45369;-76
2023/10/17 04:54:54;;;;;;;1.88;1.30;;;14.80;44.30;;;;;;5109806;27;44797;-76
2023/10/17 04:57:21;;;;;;;3.15;1.50;;;14.80;44.30;;;;;;5109859;27;45349;-75
2023/10/17 04:59:59;;;;;;;2.42;1.30;;;14.80;44.40;;;;;;5110289;27;45558;-76
2023/10/17 05:02:38;;;;;;;1.48;1.10;;;14.80;44.40;;;;;;5109675;27;45324;-76
2023/10/17 06:19:15;;;;;;;2.85;1.73;;;14.50;44.60;;;;;;5108943;27;45332;-75
2023/10/17 06:22:35;;;;;;;3.17;1.40;;;14.50;44.60;;;;;;5108874;27;45329;-75
2023/10/17 06:27:51;;;;;;;2.45;1.33;;;14.50;44.70;;;;;;5109179;27;45523;-76
2023/10/17 06:33:03;;;;;;;3.03;1.40;;;14.50;44.60;;;;;;5106854;27;45307;-75
2023/10/17 06:35:31;;;;;;;1.50;1.40;;;14.50;44.60;;;;;;5108586;27;45390;-76
2023/10/17 06:37:59;;;;;;;2.75;1.60;;;14.40;44.60;;;;;;5108667;27;45301;-75
2023/10/17 06:40:32;;;;;;;2.50;1.55;;;14.40;44.60;;;;;;5108487;27;46308;-75
2023/10/17 06:43:00;;;;;;;2.78;1.60;;;14.50;44.70;;;;;;5108323;27;45387;-76
2023/10/17 06:45:27;;;;;;;2.75;1.58;;;14.40;44.60;;;;;;5108116;27;45138;-76
2023/10/17 06:47:58;;;;;;;1.45;1.10;;;14.50;44.60;;;;;;5108349;27;45327;-76
2023/10/17 06:53:15;;;;;;;2.20;1.50;;;14.40;44.60;;;;;;5105570;27;45315;-77
2023/10/17 06:55:44;;;;;;;2.03;1.35;;;14.40;44.60;;;;;;5108200;27;45353;-76
2023/10/17 06:58:11;;;;;;;2.13;1.63;;;14.40;44.60;;;;;;5108408;27;45311;-76
2023/10/17 07:00:49;;;;;;;1.92;1.50;;;14.50;44.70;;;;;;5107995;27;46657;-76
2023/10/17 07:03:24;;;;;;;2.85;1.50;;;14.40;45.20;;;;;;5108139;27;45264;-77
2023/10/17 07:05:51;;;;;;;1.52;1.42;;;14.50;44.60;;;;;;5107713;27;45337;-76
2023/10/17 07:08:19;;;;;;;1.67;1.48;;;14.50;44.60;;;;;;5108314;27;45345;-75
2023/10/17 07:10:59;;;;;;;2.30;1.60;;;14.50;44.60;;;;;;5106984;27;45306;-76
2023/10/17 07:14:23;;;;;;;4.00;1.63;;;14.50;44.60;;;;;;5107808;27;45274;-77
2023/10/17 07:16:57;;;;;;;3.35;1.80;;;14.50;44.70;;;;;;5123048;27;45374;-75
2023/10/17 07:22:11;;;;;;;3.22;1.73;;;14.50;45.00;;;;;;5113492;27;45918;-77
2023/10/17 07:24:42;;;;;;;2.72;1.80;;;14.50;45.00;;;;;;5128586;27;45358;-75
2023/10/17 07:27:18;;;;;;;3.95;1.85;;;14.50;44.90;;;;;;5131467;27;45361;-76
2023/10/17 07:33:07;;;;;;;;;;;;;;;;;;;;;
2023/10/17 07:35:39;;;;;;;3.65;2.35;;;14.40;46.90;;;;;;5128641;27;73147;-74
2023/10/17 07:38:43;;;;;;;3.95;3.05;;;14.40;47.40;;;;;;5129630;27;45350;-74
2023/10/17 07:41:14;;;;;;;3.67;2.42;;;14.30;47.60;;;;;;5128525;27;45334;-74
2023/10/17 07:43:44;;;;;;;4.40;2.80;;;14.30;48.20;;;;;;5128094;27;45458;-74
2023/10/17 07:46:16;;;;;;;3.00;2.70;;;14.20;48.30;;;;;;5128206;27;45409;-74
2023/10/17 07:48:48;;;;;;;5.65;2.75;;;14.30;48.60;;;;;;5128396;27;45331;-74
2023/10/17 07:51:22;;;;;;;3.63;3.03;;;14.20;48.70;;;;;;5127962;27;45301;-75
2023/10/17 07:53:53;;;;;;;5.63;2.55;;;14.20;48.90;;;;;;5127757;27;45808;-74
2023/10/17 07:56:24;;;;;;;4.13;2.75;;;14.20;49.00;;;;;;5126147;27;45398;-75
2023/10/17 07:59:04;;;;;;;3.58;2.40;;;14.20;49.10;;;;;;5121383;27;45271;-73
2023/10/17 08:01:33;;;;;;;3.00;2.33;;;14.20;49.00;;;;;;5112174;27;45256;-75
2023/10/17 08:04:13;;;;;;;2.75;2.17;;;14.20;49.30;;;;;;5118531;27;45494;-75
2023/10/17 08:06:42;;;;;;;2.58;2.20;;;14.20;49.30;;;;;;5106073;27;45278;-75
2023/10/17 08:09:23;;;;;;;3.17;2.50;;;14.20;49.30;;;;;;5118604;27;45325;-75
2023/10/17 08:11:51;;;;;;;2.83;2.38;;;14.20;49.10;;;;;;5104469;27;45394;-74
2023/10/17 08:14:22;;;;;;;4.28;2.80;;;14.20;49.20;;;;;;5124973;27;47392;-73
2023/10/17 08:16:50;;;;;;;3.38;2.60;;;14.20;49.30;;;;;;5126197;27;45547;-73
2023/10/17 08:19:21;;;;;;;3.50;2.50;;;14.20;49.40;;;;;;5106129;27;45414;-74
2023/10/17 08:21:49;;;;;;;2.78;2.50;;;14.20;49.40;;;;;;5127116;27;45286;-73
2023/10/17 08:24:25;;;;;;;3.92;2.70;;;14.30;49.50;;;;;;5130076;27;46511;-73
2023/10/17 08:27:12;;;;;;;3.35;2.25;;;14.30;49.60;;;;;;5109947;27;45388;-74
2023/10/17 08:29:38;;;;;;;2.55;2.33;;;14.30;49.40;;;;;;5109931;27;45307;-73
2023/10/17 08:32:15;;;;;;;3.58;2.25;;;14.30;49.30;;;;;;5129704;27;45531;-74
2023/10/17 08:34:42;;;;;;;2.30;2.10;;;14.30;48.90;;;;;;5120395;27;45655;-73
2023/10/17 08:37:18;;;;;;;3.35;2.10;;;14.40;48.50;;;;;;5113809;27;45406;-74
2023/10/17 08:39:51;;;;;;;3.65;2.22;;;14.40;48.30;;;;;;5109592;27;45320;-73
2023/10/17 08:42:30;;;;;;;2.25;1.80;;;14.50;48.20;;;;;;5123802;27;45300;-73
2023/10/17 08:44:57;;;;;;;3.30;1.88;;;14.50;48.10;;;;;;5130084;27;45348;-73
2023/10/17 08:47:29;;;;;;;3.13;2.13;;;14.50;48.00;;;;;;5130496;27;45291;-74
2023/10/17 08:50:00;;;;;;;2.13;1.70;;;14.60;48.00;;;;;;5117801;27;45405;-73
2023/10/17 08:52:34;;;;;;;2.40;1.88;;;14.60;47.80;;;;;;5130708;27;45215;-75
2023/10/17 08:55:02;;;;;;;2.25;1.50;;;14.60;47.80;;;;;;5127795;27;45455;-73
2023/10/17 08:57:30;;;;;;;2.95;1.77;;;14.70;47.70;;;;;;5130223;27;45464;-73
2023/10/17 09:00:22;;;;;;;2.53;1.77;;;14.70;48.20;;;;;;5130701;27;45274;-74
2023/10/17 09:02:56;;;;;;;5.97;1.80;;;14.70;47.50;;;;;;5129015;27;45505;-73
2023/10/17 09:05:27;;;;;;;2.67;1.90;;;14.80;47.40;;;;;;5126978;27;45687;-71
2023/10/17 09:07:58;;;;;;;3.95;1.80;;;14.80;47.70;;;;;;5129396;27;45250;-71
2023/10/17 09:10:36;;;;;;;1.77;1.33;;;14.80;47.20;;;;;;5129703;27;45340;-72
2023/10/17 09:15:50;;;;;;;1.60;1.50;;;14.80;47.20;;;;;;5129166;27;45524;-72
2023/10/17 09:18:22;;;;;;;4.00;1.80;;;14.80;47.20;;;;;;5128726;27;45283;-73
2023/10/17 09:20:50;;;;;;;4.13;2.00;;;14.90;47.30;;;;;;5129941;27;45361;-72
2023/10/17 09:23:24;;;;;;;3.38;1.90;;;14.90;47.20;;;;;;5130099;27;45437;-72
2023/10/17 09:25:55;;;;;;;4.35;1.83;;;14.90;47.90;;;;;;5129237;27;45527;-73
2023/10/17 09:28:24;;;;;;;3.05;2.10;;;14.90;47.20;;;;;;5129149;27;45356;-72
2023/10/17 09:30:58;;;;;;;4.55;1.75;;;15.00;47.20;;;;;;5128258;27;45328;-73
2023/10/17 09:33:30;;;;;;;2.67;1.55;;;15.00;47.00;;;;;;5107843;27;45489;-73
2023/10/17 09:35:59;;;;;;;1.48;1.30;;;15.10;47.00;;;;;;5129388;27;45463;-73
2023/10/17 09:38:27;;;;;;;1.85;1.75;;;15.10;46.90;;;;;;5128713;27;45272;-72
2023/10/17 09:40:55;;;;;;;1.85;1.50;;;15.20;46.80;;;;;;5129184;27;45453;-73
2023/10/17 09:43:22;;;;;;;5.55;1.60;;;15.20;46.70;;;;;;5128916;27;45536;-73
2023/10/17 09:45:49;;;;;;;1.67;1.50;;;15.30;46.60;;;;;;5129534;27;46643;-73
2023/10/17 09:48:16;;;;;;;2.08;1.77;;;15.30;46.50;;;;;;5128913;27;45518;-72
2023/10/17 09:50:45;;;;;;;2.47;1.70;;;15.40;47.10;;;;;;5116373;27;45394;-72
2023/10/17 09:53:16;;;;;;;2.22;1.58;;;15.40;46.60;;;;;;5109106;27;45359;-72
2023/10/17 09:55:47;;;;;;;2.10;1.60;;;15.50;47.10;;;;;;5108646;27;45472;-71
2023/10/17 09:58:17;;;;;;;2.30;1.48;;;15.50;46.50;;;;;;5118948;27;45165;-71
2023/10/17 10:00:47;;;;;;;1.77;1.63;;;15.50;46.40;;;;;;5128362;27;45414;-71
2023/10/17 10:03:13;;;;;;;4.30;2.13;;;15.60;46.40;;;;;;5129559;27;45233;-72
2023/10/17 10:05:42;;;;;;;2.08;1.70;;;15.60;46.30;;;;;;5128622;27;46743;-71
2023/10/17 10:08:32;;;;;;;2.72;1.77;;;15.60;46.30;;;;;;5115980;27;45363;-72
2023/10/17 10:11:00;;;;;;;2.10;1.65;;;15.70;46.30;;;;;;5113957;27;45508;-73
2023/10/17 10:13:27;;;;;;;3.28;2.10;;;15.80;46.30;;;;;;5128716;27;45393;-72
2023/10/17 10:15:58;;;;;;;1.95;1.70;;;15.80;46.20;;;;;;5127933;27;45493;-72
2023/10/17 10:18:54;;;;;;;6.10;2.10;;;15.90;46.20;;;;;;5128152;27;46632;-73
2023/10/17 10:21:22;;;;;;;3.08;2.30;;;16.00;46.20;;;;;;5122893;27;45236;-72
2023/10/17 10:23:50;;;;;;;5.65;3.28;;;16.00;46.30;;;;;;5128854;27;45511;-72
2023/10/17 10:26:19;;;;;;;4.15;2.47;;;16.10;46.20;;;;;;5124035;27;46150;-72
2023/10/17 10:28:46;;;;;;;3.13;2.47;;;16.10;46.30;;;;;;5122037;27;45303;-72
2023/10/17 10:31:38;;;;;;;4.13;2.35;;;16.20;46.10;;;;;;5122676;27;45340;-72
2023/10/17 10:34:05;;;;;;;4.00;3.00;;;16.20;46.00;;;;;;5128266;27;45323;-72
2023/10/17 10:36:33;;;;;;;3.63;2.08;;;16.30;46.00;;;;;;5127724;27;46936;-72
2023/10/17 10:39:12;;;;;;;5.05;2.50;;;16.30;46.00;;;;;;5127740;27;45446;-72
2023/10/17 10:41:55;;;;;;;3.55;2.88;;;16.30;46.00;;;;;;5127337;27;45305;-72
2023/10/17 10:44:25;;;;;;;4.00;2.38;;;16.40;45.90;;;;;;5127380;27;45245;-72
2023/10/17 10:46:53;;;;;;;4.57;2.17;;;16.40;45.80;;;;;;5118221;27;46399;-73
2023/10/17 10:49:26;;;;;;;3.00;2.50;;;16.50;45.80;;;;;;5128205;27;45373;-73
2023/10/17 10:51:53;;;;;;;2.47;2.13;;;16.50;45.80;;;;;;5128335;27;45249;-73
2023/10/17 10:54:20;;;;;;;3.83;2.53;;;16.50;45.50;;;;;;5128317;27;45420;-73
2023/10/17 10:56:52;;;;;;;4.03;2.92;;;16.50;45.80;;;;;;5129118;27;45462;-76
2023/10/17 10:59:22;;;;;;;4.18;2.72;;;16.50;45.70;;;;;;5128346;27;45468;-75
2023/10/17 11:01:49;;;;;;;8.98;2.75;;;16.50;45.70;;;;;;5129434;27;45198;-76
2023/10/17 11:04:16;;;;;;;3.33;2.20;;;16.60;45.80;;;;;;5128808;27;45599;-77
2023/10/17 11:06:44;;;;;;;8.57;2.45;;;16.60;45.70;;;;;;5114410;27;45434;-76
2023/10/17 11:09:16;;;;;;;2.72;2.45;;;16.70;45.70;;;;;;5116921;27;45515;-76
2023/10/17 11:11:46;;;;;;;5.28;2.50;;;16.70;45.50;;;;;;5120461;27;45209;-74
2023/10/17 11:14:17;;;;;;;4.65;2.20;;;16.80;45.60;;;;;;5123559;27;45453;-75
2023/10/17 11:16:44;;;;;;;2.55;1.90;;;16.80;45.50;;;;;;5126353;27;46310;-76
2023/10/17 11:19:19;;;;;;;4.40;1.90;;;16.70;45.00;;;;;;5127869;27;45377;-78
2023/10/17 11:21:49;;;;;;;2.22;1.40;;;16.70;45.30;;;;;;5124864;27;45501;-76
2023/10/17 11:24:17;;;;;;;3.40;1.67;;;16.70;45.50;;;;;;5125913;27;45608;-77
2023/10/17 11:26:44;;;;;;;3.65;1.70;;;16.70;45.30;;;;;;5125982;27;45531;-76
2023/10/17 11:29:11;;;;;;;2.45;1.80;;;16.60;45.50;;;;;;5117430;27;45398;-77
2023/10/17 11:31:41;;;;;;;1.75;1.65;;;16.60;45.80;;;;;;5118700;27;45305;-76
2023/10/17 11:34:08;;;;;;;2.83;1.42;;;16.70;45.70;;;;;;5127993;27;45662;-75
2023/10/17 11:36:46;;;;;;;2.67;1.70;;;16.70;45.70;;;;;;5121330;27;46683;-76
2023/10/17 11:39:15;;;;;;;4.60;2.60;;;16.80;46.40;;;;;;5106966;27;45328;-75
2023/10/17 11:41:48;;;;;;;2.78;2.03;;;16.80;45.80;;;;;;5122221;27;45281;-76
2023/10/17 11:44:15;;;;;;;4.63;2.50;;;16.70;45.60;;;;;;5123609;27;45326;-75
2023/10/17 11:46:55;;;;;;;2.45;1.83;;;16.70;46.10;;;;;;5119891;27;46379;-75
2023/10/17 11:49:26;;;;;;;2.55;1.67;;;16.60;46.60;;;;;;5118086;27;45501;-75
2023/10/17 11:51:58;;;;;;;1.55;1.30;;;16.60;47.00;;;;;;5118337;27;45258;-74
2023/10/17 11:54:25;;;;;;;3.13;1.77;;;16.60;46.60;;;;;;5119161;27;45288;-75
2023/10/17 11:56:53;;;;;;;2.70;1.60;;;16.60;46.90;;;;;;5122314;27;46687;-75
2023/10/17 11:59:20;;;;;;;3.13;1.52;;;16.60;47.20;;;;;;5129796;27;45299;-75
2023/10/17 12:01:52;;;;;;;3.47;1.70;;;16.60;47.20;;;;;;5124782;27;45394;-74
2023/10/17 12:04:19;;;;;;;3.70;1.70;;;16.50;47.30;;;;;;5127746;27;45702;-72
2023/10/17 12:06:47;;;;;;;1.48;1.38;;;16.50;47.40;;;;;;5116635;27;45421;-72
2023/10/17 12:09:22;;;;;;;2.28;2.05;;;16.50;47.70;;;;;;5130850;27;45282;-73
2023/10/17 12:11:50;;;;;;;3.70;2.50;;;16.60;47.40;;;;;;5130505;27;45503;-72
2023/10/17 12:14:20;;;;;;;3.40;2.30;;;16.70;47.20;;;;;;5131258;27;45302;-71
2023/10/17 12:16:49;;;;;;;3.63;2.17;;;16.70;47.00;;;;;;5128174;27;45750;-72
2023/10/17 12:19:17;;;;;;;2.60;2.15;;;16.80;46.90;;;;;;5126254;27;45466;-72
2023/10/17 12:21:47;;;;;;;3.45;1.98;;;16.80;46.80;;;;;;5129671;27;45537;-71
2023/10/17 12:24:16;;;;;;;2.10;1.90;;;16.90;46.60;;;;;;5130277;27;45492;-71
2023/10/17 12:26:45;;;;;;;3.75;1.85;;;16.90;46.50;;;;;;5130433;27;45729;-71
2023/10/17 12:29:12;;;;;;;2.70;1.60;;;17.00;46.50;;;;;;5129043;27;45359;-73
2023/10/17 12:31:39;;;;;;;3.15;1.85;;;17.00;46.50;;;;;;5119108;27;45417;-72
2023/10/17 12:34:08;;;;;;;2.63;1.70;;;17.00;46.40;;;;;;5130241;27;45273;-73
2023/10/17 12:36:36;;;;;;;2.65;1.80;;;17.00;46.30;;;;;;5113964;27;47220;-73
2023/10/17 12:39:03;;;;;;;2.75;1.50;;;17.10;46.30;;;;;;5109633;27;45320;-73
2023/10/17 12:41:30;;;;;;;3.55;1.38;;;17.10;46.20;;;;;;5117328;27;45271;-71
2023/10/17 12:43:57;;;;;;;1.85;1.40;;;17.10;46.10;;;;;;5128887;27;45133;-71
2023/10/17 12:46:25;;;;;;;1.40;1.25;;;17.10;46.20;;;;;;5119738;27;45480;-71
2023/10/17 12:48:52;;;;;;;1.90;1.70;;;17.20;46.20;;;;;;5144501;27;45217;-71
2023/10/17 12:51:23;;;;;;;2.47;1.83;;;17.20;46.20;;;;;;5139553;27;45236;-73
2023/10/17 12:53:49;;;;;;;1.40;1.30;;;17.20;46.10;;;;;;5137027;27;44947;-73
2023/10/17 12:56:17;;;;;;;2.08;1.52;;;17.20;46.00;;;;;;5131192;27;45335;-72
2023/10/17 12:58:44;;;;;;;1.80;1.20;;;17.30;45.90;;;;;;5132093;27;45367;-72
2023/10/17 13:01:12;;;;;;;4.07;2.88;;;17.30;45.80;;;;;;5121691;27;45377;-73
2023/10/17 13:03:39;;;;;;;3.92;2.50;;;17.30;45.80;;;;;;5111535;27;45319;-71
2023/10/17 13:06:06;;;;;;;6.72;4.53;;;17.40;45.80;;;;;;5108827;27;45982;-74
2023/10/17 13:08:35;;;;;;;8.52;3.83;;;17.40;46.00;;;;;;5107918;27;45446;-73
2023/10/17 13:11:06;;;;;;;6.07;3.22;;;17.40;45.80;;;;;;5108878;27;45283;-73
2023/10/17 13:13:33;;;;;;;4.45;2.60;;;17.40;45.80;;;;;;5109471;27;45316;-76
2023/10/17 13:16:02;;;;;;;4.13;2.22;;;17.40;45.70;;;;;;5109245;27;46644;-76
2023/10/17 13:18:29;;;;;;;3.38;1.88;;;17.50;45.80;;;;;;5109266;27;45327;-76
2023/10/17 13:21:02;;;;;;;2.58;1.63;;;17.50;45.70;;;;;;5109028;27;45373;-73
2023/10/17 13:23:29;;;;;;;2.85;1.88;;;17.50;45.70;;;;;;5109397;27;45485;-76
2023/10/17 13:25:58;;;;;;;2.40;1.75;;;17.50;45.60;;;;;;5108727;27;46648;-76
2023/10/17 13:28:25;;;;;;;1.77;1.38;;;17.50;45.60;;;;;;5109184;27;45629;-75
2023/10/17 13:30:52;;;;;;;2.78;1.63;;;17.50;45.70;;;;;;5109580;27;45308;-74
2023/10/17 13:33:21;;;;;;;1.50;1.40;;;17.50;45.60;;;;;;5109195;27;45284;-76
2023/10/17 13:35:48;;;;;;;2.55;1.33;;;17.50;45.60;;;;;;5108858;27;46562;-75
2023/10/17 13:38:16;;;;;;;1.80;1.38;;;17.50;45.70;;;;;;5108907;27;45429;-74
2023/10/17 13:40:43;;;;;;;4.28;1.65;;;17.50;45.60;;;;;;5109468;27;45391;-75
2023/10/17 13:43:13;;;;;;;3.83;1.67;;;17.60;45.80;;;;;;5109435;27;45264;-73
2023/10/17 13:45:41;;;;;;;2.55;1.55;;;17.60;45.90;;;;;;5108610;27;45742;-72
2023/10/17 13:48:08;;;;;;;4.45;1.30;;;17.60;45.80;;;;;;5108742;27;45306;-71
2023/10/17 13:50:36;;;;;;;2.05;1.60;;;17.70;45.90;;;;;;5109104;27;45268;-71
2023/10/17 13:53:08;;;;;;;4.07;1.40;;;17.70;45.60;;;;;;5108748;27;45518;-72
2023/10/17 13:55:36;;;;;;;4.93;1.35;;;17.80;45.70;;;;;;5108691;27;45345;-73
2023/10/17 13:58:04;;;;;;;4.55;1.65;;;17.90;45.50;;;;;;5108724;27;45436;-74
2023/10/17 14:00:42;;;;;;;1.33;1.23;;;18.00;45.30;;;;;;5108365;27;45304;-73
2023/10/17 14:03:12;;;;;;;1.80;1.40;;;18.10;45.20;;;;;;5117332;27;45326;-73
2023/10/17 14:05:41;;;;;;;2.97;1.75;;;18.20;45.10;;;;;;5128108;27;48390;-67
2023/10/17 14:08:08;;;;;;;4.80;1.60;;;18.30;45.20;;;;;;5128549;27;45303;-72
2023/10/17 14:10:37;;;;;;;1.88;1.40;;;18.30;45.30;;;;;;5129330;27;45262;-73
2023/10/17 14:13:08;;;;;;;1.67;1.40;;;18.30;44.90;;;;;;5129013;27;45423;-71
2023/10/17 14:15:36;;;;;;;3.05;1.45;;;18.30;45.00;;;;;;5129391;27;45420;-76
2023/10/17 14:18:13;;;;;;;10.43;2.03;;;18.30;44.90;;;;;;5130996;27;45421;-73
2023/10/17 14:20:53;;;;;;;13.15;2.38;;;18.30;45.10;;;;;;5129255;27;45416;-77
2023/10/17 14:23:26;;;;;;;12.55;2.20;;;18.30;45.60;;;;;;5129088;27;45587;-70
2023/10/17 14:26:03;;;;;;;12.30;1.90;;;18.40;45.60;;;;;;5128440;27;45528;-71
2023/10/17 14:28:29;;;;;;;9.75;1.80;;;18.50;45.60;;;;;;5128880;27;45244;-74
2023/10/17 14:30:57;;;;;;;8.75;2.80;;;18.50;45.60;;;;;;5128635;27;45178;-72
2023/10/17 14:33:25;;;;;;;7.35;2.10;;;18.50;45.80;;;;;;5128568;27;45402;-74
2023/10/17 14:35:51;;;;;;;6.45;2.40;;;18.50;46.30;;;;;;5128152;27;45686;-71
2023/10/17 14:38:18;;;;;;;9.10;2.60;;;18.50;46.20;;;;;;5128084;27;45271;-69
2023/10/17 14:40:45;;;;;;;5.10;1.70;;;18.50;46.80;;;;;;5128791;27;45278;-72